createdAt,value
2023-01-13T00:01:43.892Z,72.54
2023-01-13T00:06:45.634Z,74.12
2023-01-13T00:11:56.322Z,74.39
2023-01-13T00:16:58.267Z,73.23
2023-01-13T00:22:00.076Z,74.82
2023-01-13T00:27:01.857Z,76.16
2023-01-13T00:32:04.187Z,76.02
2023-01-13T00:37:06.593Z,77.67
2023-01-13T00:42:27.317Z,81.11
2023-01-13T00:47:29.114Z,83.97
2023-01-13T00:52:32.490Z,86.27
2023-01-13T00:57:34.357Z,85.58
2023-01-13T01:02:36.149Z,86.34
2023-01-13T01:07:37.921Z,86.83
2023-01-13T01:12:39.595Z,88.53
2023-01-13T01:17:41.282Z,90.92
2023-01-13T01:22:42.996Z,89.82
2023-01-13T01:27:44.687Z,87.52
2023-01-13T01:32:46.396Z,87.28
2023-01-13T01:37:48.057Z,85.99
2023-01-13T01:43:08.328Z,85.79
2023-01-13T01:48:11.237Z,83.96
2023-01-13T01:53:18.228Z,82.73
2023-01-13T01:58:29.140Z,83.09
2023-01-13T02:03:31.548Z,81.21
2023-01-13T02:08:33.441Z,80.24
2023-01-13T02:13:35.523Z,80.16
2023-01-13T02:18:58.374Z,78.51
2023-01-13T02:24:56.772Z,76.61
2023-01-13T02:30:32.553Z,77.15
2023-01-13T02:35:52.846Z,78.11
2023-01-13T02:41:20.653Z,76.33
2023-01-13T02:46:33.789Z,76.12
2023-01-13T02:51:38.788Z,75.48
2023-01-13T02:56:44.378Z,74.82
2023-01-13T03:01:47.723Z,74.86
2023-01-13T03:07:28.004Z,74.34
2023-01-13T03:12:47.064Z,75.58
2023-01-13T03:17:53.774Z,75.22
2023-01-13T03:23:13.392Z,73.27
2023-01-13T03:28:25.457Z,74.48
2023-01-13T03:33:33.301Z,73.88
2023-01-13T03:38:45.424Z,73.75
2023-01-13T03:44:27.323Z,73.80
2023-01-13T03:49:49.713Z,73.69
2023-01-13T03:54:59.137Z,72.18
2023-01-13T04:00:04.029Z,73.38
2023-01-13T04:05:14.618Z,72.49
2023-01-13T04:10:22.510Z,73.37
2023-01-13T04:15:28.107Z,74.10
2023-01-13T04:20:29.852Z,73.16
2023-01-13T04:25:31.820Z,73.15
2023-01-13T04:30:34.122Z,74.54
2023-01-13T04:35:36.861Z,74.16
2023-01-13T04:40:39.743Z,73.99
2023-01-13T04:45:42.527Z,74.16
2023-01-13T04:50:44.705Z,73.18
2023-01-13T04:55:47.904Z,72.89
2023-01-13T05:00:53.092Z,73.99
2023-01-13T05:05:55.077Z,73.24
2023-01-13T05:11:00.417Z,74.05
2023-01-13T05:16:22.229Z,72.78
2023-01-13T05:21:42.508Z,74.04
2023-01-13T05:26:44.679Z,73.37
2023-01-13T05:31:46.299Z,72.39
2023-01-13T05:36:47.996Z,72.60
2023-01-13T05:42:08.588Z,73.18
2023-01-13T05:47:10.586Z,73.38
2023-01-13T05:52:12.280Z,72.96
2023-01-13T05:57:14.108Z,73.03
2023-01-13T06:02:15.753Z,73.61
2023-01-13T06:07:17.459Z,72.71
2023-01-13T06:12:19.940Z,73.56
2023-01-13T06:17:22.113Z,74.54
2023-01-13T06:22:27.231Z,74.16
2023-01-13T06:27:29.899Z,73.79
2023-01-13T06:32:41.064Z,73.60
2023-01-13T06:37:45.017Z,73.15
2023-01-13T06:43:05.235Z,73.66
2023-01-13T06:48:07.407Z,73.11
2023-01-13T06:53:09.922Z,73.62
2023-01-13T06:58:11.748Z,72.73
2023-01-13T07:03:15.965Z,72.90
2023-01-13T07:08:17.747Z,72.72
2023-01-13T07:13:38.011Z,73.25
2023-01-13T07:18:39.803Z,71.96
2023-01-13T07:23:41.858Z,71.47
2023-01-13T07:28:43.643Z,71.32
2023-01-13T07:33:45.435Z,71.81
2023-01-13T07:38:47.299Z,72.42
2023-01-13T07:43:49.161Z,72.98
2023-01-13T07:48:50.842Z,72.60
2023-01-13T07:53:52.605Z,73.47
2023-01-13T07:58:54.501Z,72.87
2023-01-13T08:03:56.373Z,73.32
2023-01-13T08:08:58.767Z,73.86
2023-01-13T08:14:00.470Z,73.12
2023-01-13T08:19:02.200Z,71.17
2023-01-13T08:24:04.013Z,72.08
2023-01-13T08:29:05.757Z,71.57
2023-01-13T08:34:07.507Z,71.82
2023-01-13T08:39:09.146Z,70.22
2023-01-13T08:44:10.852Z,69.57
2023-01-13T08:49:12.731Z,71.60
2023-01-13T08:54:14.413Z,69.84
2023-01-13T08:59:18.212Z,70.22
2023-01-13T09:04:23.122Z,69.75
2023-01-13T09:09:27.589Z,69.03
2023-01-13T09:14:32.776Z,68.43
2023-01-13T09:19:35.289Z,70.04
2023-01-13T09:24:37.006Z,69.20
2023-01-13T09:29:38.634Z,82.23
2023-01-13T09:34:58.868Z,88.36
2023-01-13T09:40:01.109Z,92.20
2023-01-13T09:45:08.247Z,95.93
2023-01-13T09:50:20.583Z,97.06
2023-01-13T09:55:36.924Z,98.96
2023-01-13T10:01:03.749Z,100.00
2023-01-13T10:06:13.536Z,98.52
2023-01-13T10:11:39.939Z,98.01
2023-01-13T10:16:45.973Z,95.50
2023-01-13T10:22:08.452Z,95.81
2023-01-13T10:27:37.198Z,93.17
2023-01-13T10:32:41.681Z,91.23
2023-01-13T10:37:57.137Z,91.27
2023-01-13T10:43:08.688Z,89.23
2023-01-13T10:48:16.554Z,86.33
2023-01-13T10:53:23.802Z,87.29
2023-01-13T10:58:26.022Z,89.32
2023-01-13T11:03:36.929Z,87.28
2023-01-13T11:08:45.223Z,88.04
2023-01-13T11:14:09.199Z,87.97
2023-01-13T11:19:18.307Z,85.10
2023-01-13T11:24:53.033Z,89.40
2023-01-13T11:30:17.552Z,88.20
2023-01-13T11:35:21.714Z,86.85
2023-01-13T11:40:34.376Z,80.52
2023-01-13T11:45:53.696Z,80.17
2023-01-13T11:51:13.883Z,80.70
2023-01-13T11:56:40.511Z,82.53
2023-01-13T12:01:57.195Z,79.97
2023-01-13T12:07:22.770Z,79.55
2023-01-13T12:12:39.254Z,80.34
2023-01-13T12:17:52.532Z,74.75
2023-01-13T12:23:02.158Z,74.97
2023-01-13T12:28:11.821Z,69.34
2023-01-13T12:33:52.374Z,66.58
2023-01-13T12:39:04.015Z,70.66
2023-01-13T12:44:17.726Z,69.64
2023-01-13T12:49:22.480Z,72.66
2023-01-13T12:54:45.051Z,72.44
2023-01-13T13:00:09.918Z,71.36
2023-01-13T13:05:14.736Z,71.40
2023-01-13T13:10:30.189Z,72.21
2023-01-13T13:15:36.499Z,71.99
2023-01-13T13:21:02.253Z,71.04
2023-01-13T13:26:29.800Z,72.28
2023-01-13T13:31:50.256Z,73.08
2023-01-13T13:37:21.745Z,72.71
2023-01-13T13:42:45.397Z,71.94
2023-01-13T13:47:47.376Z,73.33
2023-01-13T13:52:58.900Z,73.00
2023-01-13T13:58:01.697Z,73.30
2023-01-13T14:03:08.006Z,73.29
2023-01-13T14:08:13.165Z,71.51
2023-01-13T14:13:20.777Z,71.73
2023-01-13T14:18:22.952Z,70.92
2023-01-13T14:23:34.185Z,70.77
2023-01-13T14:28:38.352Z,70.28
2023-01-13T14:33:48.889Z,71.52
2023-01-13T14:39:05.723Z,70.55
2023-01-13T14:44:34.204Z,70.15
2023-01-13T14:49:41.468Z,70.62
2023-01-13T14:54:46.768Z,68.56
2023-01-13T15:00:14.670Z,69.34
2023-01-13T15:05:19.228Z,69.45
2023-01-13T15:10:27.354Z,70.31
2023-01-13T15:15:32.866Z,76.32
2023-01-13T15:20:34.503Z,79.63
2023-01-13T15:25:38.674Z,82.26
2023-01-13T15:30:40.360Z,84.54
2023-01-13T15:35:44.855Z,86.12
2023-01-13T15:40:47.671Z,87.35
2023-01-13T15:46:07.816Z,89.12
2023-01-13T15:51:11.926Z,90.75
2023-01-13T15:56:24.540Z,90.27
2023-01-13T16:01:26.417Z,90.08
2023-01-13T16:06:34.629Z,90.40
2023-01-13T16:11:36.403Z,90.00
2023-01-13T16:16:38.131Z,89.75
2023-01-13T16:21:40.523Z,89.12
2023-01-13T16:26:42.295Z,89.79
2023-01-13T16:31:44.134Z,90.16
2023-01-13T16:36:46.413Z,88.13
2023-01-13T16:41:48.716Z,86.19
2023-01-13T16:46:50.480Z,81.91
2023-01-13T16:51:52.189Z,81.43
2023-01-13T16:56:53.938Z,79.00
2023-01-13T17:01:55.720Z,76.37
2023-01-13T17:07:00.528Z,76.89
2023-01-13T17:12:02.591Z,76.93
2023-01-13T17:17:07.720Z,76.39
2023-01-13T17:22:09.399Z,75.80
2023-01-13T17:27:11.989Z,72.70
2023-01-13T17:32:21.057Z,70.67
2023-01-13T17:37:22.804Z,70.30
2023-01-13T17:42:27.917Z,68.69
2023-01-13T17:47:29.883Z,68.83
2023-01-13T17:52:31.642Z,68.22
2023-01-13T17:57:35.508Z,68.75
2023-01-13T18:02:37.245Z,69.64
2023-01-13T18:07:38.990Z,68.58
2023-01-13T18:12:40.760Z,69.58
2023-01-13T18:17:42.553Z,75.70
2023-01-13T18:23:02.844Z,79.16
2023-01-13T18:28:05.061Z,76.57
2023-01-13T18:33:06.844Z,76.53
2023-01-13T18:38:11.361Z,74.19
2023-01-13T18:43:13.227Z,71.53
2023-01-13T18:48:16.178Z,71.42
2023-01-13T18:53:17.922Z,70.56
2023-01-13T18:58:20.480Z,70.71
2023-01-13T19:03:29.993Z,70.49
2023-01-13T19:08:33.616Z,69.14
2023-01-13T19:13:36.669Z,68.89
2023-01-13T19:18:38.531Z,68.75
2023-01-13T19:23:40.390Z,68.52
2023-01-13T19:28:42.294Z,68.99
2023-01-13T19:33:44.041Z,69.92
2023-01-13T19:38:45.840Z,70.73
2023-01-13T19:44:06.070Z,70.50
2023-01-13T19:49:08.217Z,70.09
2023-01-13T19:54:09.997Z,71.36
2023-01-13T19:59:13.530Z,71.66
2023-01-13T20:04:17.165Z,71.65
2023-01-13T20:09:18.945Z,71.97
2023-01-13T20:14:21.195Z,71.10
2023-01-13T20:19:22.917Z,72.32
2023-01-13T20:24:26.129Z,72.34
2023-01-13T20:29:28.691Z,73.67
2023-01-13T20:34:30.736Z,73.91
2023-01-13T20:39:33.685Z,73.90
2023-01-13T20:44:35.730Z,73.28
2023-01-13T20:49:37.398Z,74.56
2023-01-13T20:54:40.951Z,74.46
2023-01-13T20:59:43.205Z,74.25
2023-01-13T21:04:45.084Z,74.75
2023-01-13T21:09:47.006Z,74.49
2023-01-13T21:15:07.093Z,75.51
2023-01-13T21:20:11.301Z,75.93
2023-01-13T21:25:13.327Z,76.07
2023-01-13T21:30:17.024Z,76.40
2023-01-13T21:35:18.955Z,77.02
2023-01-13T21:40:21.416Z,75.95
2023-01-13T21:45:41.779Z,76.16
2023-01-13T21:50:43.607Z,74.58
2023-01-13T21:55:51.534Z,76.73
2023-01-13T22:00:54.163Z,75.04
2023-01-13T22:05:56.586Z,76.17
2023-01-13T22:10:58.681Z,76.33
2023-01-13T22:16:04.595Z,77.17
2023-01-13T22:21:06.608Z,76.92
2023-01-13T22:26:08.656Z,77.11
2023-01-13T22:31:12.316Z,77.34
2023-01-13T22:36:15.218Z,77.40
2023-01-13T22:41:16.887Z,78.56
2023-01-13T22:46:18.611Z,78.28
2023-01-13T22:51:22.673Z,78.02
2023-01-13T22:56:25.723Z,78.16
2023-01-13T23:01:32.200Z,78.05
2023-01-13T23:06:34.630Z,77.86
2023-01-13T23:11:36.839Z,78.40
2023-01-13T23:16:40.562Z,78.81
2023-01-13T23:21:42.255Z,80.59
2023-01-13T23:26:44.078Z,82.40
2023-01-13T23:31:47.259Z,82.71
2023-01-13T23:36:49.139Z,81.57
2023-01-13T23:41:51.049Z,81.17
2023-01-13T23:46:53.503Z,80.07
2023-01-13T23:51:55.171Z,79.71
2023-01-13T23:56:57.399Z,80.23
